Historique des mesures à Cassis (13260), France
Quotidien Résumé Janvier 9, 2017 Unités:  Métrique    US   Métrique/US
« Précédent (Jour)
Suivant (Jour) »
Quotidien Hebdomadaire Mensuel Annuel Période au choix
  Maximum: Minimum: Moyenne:
Température: TemperatureC °C 4.0 °C 7.1 °C
Point de rosée: DewpointC °C -3.6 °C -0.4 °C
Humidité: Humidity % 52 % 56 %
Vitesse du vent: 0 km/h 0 km/h 4 km/h
Rafales: 0 km/h - -
Vent:- - SSE
Pression: PressurehPa hPa 1013.1 hPa -
Précipitations: 0.0 mm    
Historical Graphs
 
 
Mesures pour : Janvier 9, 2017
Heure Temperature Point de rosée Pression Vent Vitesse du vent Rafales Humidité Pluie (par heure) Conditions
TemperatureC °C DewpointC °C PressurehPa hPa Calm     Humidity % HourlyPrecipMM mm SoftwareType W/m2
00:11 6.9 °C 0.6 °C 1020.2 hPa Calm     64 % 0.0 mm open2300-1.11 W/m2
01:10 7.2 °C 0.8 °C 1020.5 hPa Calm     64 % 0.0 mm open2300-1.11 W/m2
02:11 7.6 °C 1.0 °C 1020.5 hPa Calm     63 % 0.0 mm open2300-1.11 W/m2
03:10 7.4 °C 0.4 °C 1020.5 hPa Calm     61 % 0.0 mm open2300-1.11 W/m2
04:11 7.3 °C 0.1 °C 1020.9 hPa Calm   9.8 km/h 60 % 0.0 mm open2300-1.11 W/m2
05:10 7.8 °C 0.5 °C 1020.5 hPa Calm     60 % 0.0 mm open2300-1.11 W/m2
06:11 7.8 °C 0.5 °C 1020.5 hPa Calm     60 % 0.0 mm open2300-1.11 W/m2
07:10 7.6 °C 0.3 °C 1020.5 hPa Calm     60 % 0.0 mm open2300-1.11 W/m2
08:11 7.3 °C 0.1 °C 1020.5 hPa Calm     60 % 0.0 mm open2300-1.11 W/m2
09:10 7.2 °C -0.3 °C 1020.9 hPa Calm     59 % 0.0 mm open2300-1.11 W/m2
10:11 7.8 °C 0.3 °C 1020.5 hPa Calm     59 % 0.0 mm open2300-1.11 W/m2
11:10 8.5 °C 0.7 °C 1020.5 hPa Calm     58 % 0.0 mm open2300-1.11 W/m2
12:12 10.2 °C 2.1 °C 1018.8 hPa Calm     57 % 0.0 mm open2300-1.11 W/m2
13:10 10.8 °C 2.8 °C 1017.8 hPa Calm     58 % 0.0 mm open2300-1.11 W/m2
14:11 10.1 °C 1.4 °C 1016.8 hPa WNW 26.2 km/h 27.2 km/h 55 % 0.0 mm open2300-1.11 W/m2
15:10 9.6 °C 0.7 °C 1016.1 hPa NNE 9.8 km/h 15.6 km/h 54 % 0.0 mm open2300-1.11 W/m2
16:11 9.2 °C 0.1 °C 1015.8 hPa NW 17.4 km/h 34.1 km/h 53 % 0.0 mm open2300-1.11 W/m2
17:10 7.8 °C -1.5 °C 1015.5 hPa NW 19.6 km/h 19.6 km/h 52 % 0.0 mm open2300-1.11 W/m2
18:11 6.3 °C -2.8 °C 1015.5 hPa NNE 13.2 km/h 16.3 km/h 52 % 0.0 mm open2300-1.11 W/m2
19:10 6.1 °C -2.6 °C 1015.1 hPa Calm     54 % 0.0 mm open2300-1.11 W/m2
20:11 5.1 °C -3.3 °C 1014.1 hPa North 14 km/h 14 km/h 55 % 0.0 mm open2300-1.11 W/m2
21:10 4.8 °C -3.6 °C 1014.1 hPa Calm   9.8 km/h 55 % 0.0 mm open2300-1.11 W/m2
22:11 4.3 °C -3.6 °C 1013.4 hPa Calm   17.4 km/h 57 % 0.0 mm open2300-1.11 W/m2
23:10 4.0 °C -3.6 °C 1013.1 hPa Calm   10.3 km/h 58 % 0.0 mm open2300-1.11 W/m2
Observations météo à CASSIS
WU-History script by Weather Underground - 1 mb